DLH2471 EDDF-EGLL
Flight info
| Callsign | DLH2471 |
|---|---|
| Flight time | 1h 8m |
| Altitude | 37000 |
| Route | OBOKA5G/25C OBOKA Z29 TORNU DCT ABNED L980 LOGAN LOGAN2H |
| Aircraft | A359/H-SDE2E3GHIJ3J4J5LM1ORWXY/LB1D1 |
Departure
| Time | 2026-05-05 17:17 |
|---|---|
| Airport | Frankfurt Main Airport (EDDF) |
Arrival
| Time | 2026-05-05 18:25 |
|---|---|
| Airport | London Heathrow Airport (EGLL) |
| Time | Latitude | Longitude | Altitude | Speed | Heading |
|---|---|---|---|---|---|
| 2026-05-05 16:36 | 50.04705 | 8.56173 | 352 ft | 0 kts | 339° |
| 2026-05-05 16:53 | 50.04701 | 8.56176 | 362 ft | 2 kts | 338° |
| 2026-05-05 16:53 | 50.04686 | 8.56186 | 362 ft | 2 kts | 333° |
| 2026-05-05 16:53 | 50.04671 | 8.56199 | 362 ft | 2 kts | 326° |
| 2026-05-05 16:53 | 50.04658 | 8.56215 | 361 ft | 2 kts | 317° |
| 2026-05-05 16:54 | 50.04647 | 8.56233 | 362 ft | 2 kts | 304° |
| 2026-05-05 16:54 | 50.04639 | 8.56256 | 362 ft | 2 kts | 288° |
| 2026-05-05 16:54 | 50.04636 | 8.56281 | 362 ft | 2 kts | 271° |
| 2026-05-05 16:54 | 50.04637 | 8.56307 | 360 ft | 2 kts | 258° |
| 2026-05-05 16:55 | 50.04641 | 8.56326 | 357 ft | 1 kts | 250° |
| 2026-05-05 16:55 | 50.04641 | 8.56330 | 362 ft | 0 kts | 249° |
| 2026-05-05 16:58 | 50.04641 | 8.56329 | 362 ft | 1 kts | 249° |
| 2026-05-05 16:58 | 50.04629 | 8.56274 | 362 ft | 9 kts | 250° |
| 2026-05-05 16:59 | 50.04605 | 8.56173 | 358 ft | 11 kts | 248° |
| 2026-05-05 16:59 | 50.04573 | 8.56047 | 357 ft | 14 kts | 249° |
| 2026-05-05 16:59 | 50.04514 | 8.55954 | 359 ft | 12 kts | 203° |
| 2026-05-05 16:59 | 50.04432 | 8.55918 | 357 ft | 12 kts | 183° |
| 2026-05-05 17:00 | 50.04343 | 8.55933 | 362 ft | 14 kts | 164° |
| 2026-05-05 17:00 | 50.04272 | 8.55987 | 362 ft | 6 kts | 143° |
| 2026-05-05 17:00 | 50.04223 | 8.56035 | 356 ft | 10 kts | 152° |
| 2026-05-05 17:00 | 50.04155 | 8.56080 | 357 ft | 12 kts | 158° |
| 2026-05-05 17:01 | 50.04103 | 8.56146 | 362 ft | 4 kts | 94° |
| 2026-05-05 17:01 | 50.04112 | 8.56209 | 362 ft | 10 kts | 73° |
| 2026-05-05 17:01 | 50.04142 | 8.56343 | 360 ft | 15 kts | 70° |
| 2026-05-05 17:01 | 50.04182 | 8.56509 | 360 ft | 18 kts | 70° |
| 2026-05-05 17:02 | 50.04229 | 8.56706 | 358 ft | 21 kts | 69° |
| 2026-05-05 17:02 | 50.04281 | 8.56927 | 355 ft | 23 kts | 70° |
| 2026-05-05 17:02 | 50.04341 | 8.57174 | 358 ft | 19 kts | 70° |
| 2026-05-05 17:02 | 50.04387 | 8.57367 | 359 ft | 14 kts | 70° |
| 2026-05-05 17:03 | 50.04425 | 8.57527 | 356 ft | 17 kts | 69° |
| 2026-05-05 17:03 | 50.04455 | 8.57653 | 357 ft | 12 kts | 69° |
| 2026-05-05 17:03 | 50.04489 | 8.57796 | 355 ft | 16 kts | 70° |
| 2026-05-05 17:03 | 50.04514 | 8.57901 | 361 ft | 0 kts | 70° |
| 2026-05-05 17:08 | 50.04517 | 8.57911 | 352 ft | 5 kts | 70° |
| 2026-05-05 17:08 | 50.04541 | 8.58014 | 356 ft | 12 kts | 70° |
| 2026-05-05 17:08 | 50.04575 | 8.58158 | 359 ft | 16 kts | 70° |
| 2026-05-05 17:09 | 50.04616 | 8.58334 | 360 ft | 14 kts | 70° |
| 2026-05-05 17:09 | 50.04649 | 8.58471 | 358 ft | 10 kts | 69° |
| 2026-05-05 17:09 | 50.04645 | 8.58549 | 357 ft | 3 kts | 132° |
| 2026-05-05 17:09 | 50.04615 | 8.58574 | 352 ft | 0 kts | 156° |
| 2026-05-05 17:14 | 50.04611 | 8.58577 | 360 ft | 3 kts | 156° |
| 2026-05-05 17:14 | 50.04560 | 8.58606 | 359 ft | 12 kts | 160° |
| 2026-05-05 17:15 | 50.04501 | 8.58607 | 361 ft | 5 kts | 213° |
| 2026-05-05 17:15 | 50.04477 | 8.58544 | 359 ft | 6 kts | 252° |
| 2026-05-05 17:15 | 50.04477 | 8.58542 | 359 ft | 0 kts | 252° |
| 2026-05-05 17:16 | 50.04475 | 8.58536 | 360 ft | 8 kts | 252° |
| 2026-05-05 17:16 | 50.04360 | 8.58052 | 359 ft | 86 kts | 249° |
| 2026-05-05 17:16 | 50.04068 | 8.56835 | 359 ft | 152 kts | 249° |
| 2026-05-05 17:16 | 50.03667 | 8.55144 | 873 ft | 168 kts | 251° |
| 2026-05-05 17:17 | 50.03288 | 8.53367 | 1566 ft | 180 kts | 253° |
| 2026-05-05 17:17 | 50.02906 | 8.51435 | 2254 ft | 193 kts | 255° |
| 2026-05-05 17:17 | 50.02783 | 8.49301 | 2888 ft | 204 kts | 272° |
| 2026-05-05 17:17 | 50.02891 | 8.47009 | 3471 ft | 220 kts | 275° |
| 2026-05-05 17:18 | 50.02981 | 8.44584 | 4201 ft | 228 kts | 266° |
| 2026-05-05 17:18 | 50.02784 | 8.42047 | 4799 ft | 248 kts | 259° |
| 2026-05-05 17:18 | 50.02455 | 8.39310 | 4988 ft | 264 kts | 257° |
| 2026-05-05 17:18 | 50.02103 | 8.36492 | 5008 ft | 265 kts | 258° |
| 2026-05-05 17:19 | 50.01752 | 8.33637 | 5010 ft | 265 kts | 258° |
| 2026-05-05 17:19 | 50.01419 | 8.30810 | 5004 ft | 265 kts | 259° |
| 2026-05-05 17:19 | 50.01391 | 8.27942 | 5005 ft | 268 kts | 277° |
| 2026-05-05 17:19 | 50.01972 | 8.25188 | 5011 ft | 269 kts | 292° |
| 2026-05-05 17:20 | 50.02757 | 8.22540 | 5004 ft | 270 kts | 293° |
| 2026-05-05 17:20 | 50.03563 | 8.19859 | 5112 ft | 269 kts | 293° |
| 2026-05-05 17:20 | 50.04353 | 8.17194 | 5642 ft | 273 kts | 292° |
| 2026-05-05 17:20 | 50.05147 | 8.14496 | 6644 ft | 275 kts | 291° |
| 2026-05-05 17:21 | 50.06049 | 8.11815 | 7716 ft | 278 kts | 300° |
| 2026-05-05 17:21 | 50.07209 | 8.09383 | 8784 ft | 282 kts | 305° |
| 2026-05-05 17:21 | 50.08472 | 8.06959 | 9868 ft | 286 kts | 305° |
| 2026-05-05 17:22 | 50.11097 | 8.01894 | 11094 ft | 322 kts | 305° |
| 2026-05-05 17:22 | 50.12528 | 7.99113 | 11822 ft | 334 kts | 306° |
| 2026-05-05 17:22 | 50.14008 | 7.96242 | 12596 ft | 342 kts | 306° |
| 2026-05-05 17:22 | 50.15512 | 7.93321 | 13499 ft | 347 kts | 306° |
| 2026-05-05 17:23 | 50.17031 | 7.90363 | 14342 ft | 352 kts | 306° |
| 2026-05-05 17:23 | 50.18600 | 7.87301 | 15166 ft | 357 kts | 306° |
| 2026-05-05 17:23 | 50.20148 | 7.84276 | 15979 ft | 361 kts | 306° |
| 2026-05-05 17:23 | 50.21748 | 7.81145 | 16785 ft | 366 kts | 306° |
| 2026-05-05 17:24 | 50.23345 | 7.78018 | 17599 ft | 371 kts | 306° |
| 2026-05-05 17:24 | 50.24458 | 7.75974 | 18107 ft | 375 kts | 310° |
| 2026-05-05 17:24 | 50.26476 | 7.73324 | 18851 ft | 384 kts | 325° |
| 2026-05-05 17:24 | 50.28868 | 7.71397 | 19616 ft | 390 kts | 334° |
| 2026-05-05 17:25 | 50.31398 | 7.69678 | 20381 ft | 394 kts | 335° |
| 2026-05-05 17:25 | 50.33212 | 7.68463 | 20955 ft | 397 kts | 334° |
| 2026-05-05 17:25 | 50.36497 | 7.66244 | 21944 ft | 402 kts | 334° |
| 2026-05-05 17:25 | 50.39109 | 7.64468 | 22701 ft | 406 kts | 334° |
| 2026-05-05 17:26 | 50.41715 | 7.62683 | 23419 ft | 411 kts | 334° |
| 2026-05-05 17:26 | 50.44347 | 7.60874 | 24026 ft | 416 kts | 334° |
| 2026-05-05 17:26 | 50.47014 | 7.59039 | 24622 ft | 421 kts | 334° |
| 2026-05-05 17:26 | 50.49710 | 7.57179 | 25217 ft | 425 kts | 334° |
| 2026-05-05 17:27 | 50.52427 | 7.55303 | 25787 ft | 430 kts | 333° |
| 2026-05-05 17:27 | 50.55165 | 7.53350 | 26369 ft | 433 kts | 330° |
| 2026-05-05 17:27 | 50.57780 | 7.50974 | 26969 ft | 435 kts | 324° |
| 2026-05-05 17:27 | 50.60373 | 7.48340 | 27549 ft | 439 kts | 323° |
| 2026-05-05 17:28 | 50.62975 | 7.45664 | 28136 ft | 443 kts | 323° |
| 2026-05-05 17:28 | 50.65567 | 7.42998 | 28706 ft | 447 kts | 323° |
| 2026-05-05 17:28 | 50.68187 | 7.40303 | 29288 ft | 451 kts | 323° |
| 2026-05-05 17:28 | 50.70814 | 7.37568 | 29835 ft | 454 kts | 321° |
| 2026-05-05 17:29 | 50.73266 | 7.34431 | 30284 ft | 453 kts | 312° |
| 2026-05-05 17:29 | 50.75344 | 7.30621 | 30758 ft | 451 kts | 301° |
| 2026-05-05 17:29 | 50.76992 | 7.26333 | 31209 ft | 451 kts | 295° |
| 2026-05-05 17:29 | 50.78477 | 7.21951 | 31632 ft | 454 kts | 293° |
| 2026-05-05 17:30 | 50.79916 | 7.17501 | 32038 ft | 457 kts | 292° |
| 2026-05-05 17:30 | 50.81370 | 7.12925 | 32492 ft | 460 kts | 292° |
| 2026-05-05 17:30 | 50.82807 | 7.08389 | 32912 ft | 463 kts | 292° |
| 2026-05-05 17:30 | 50.84259 | 7.03831 | 33288 ft | 467 kts | 292° |
| 2026-05-05 17:31 | 50.85782 | 6.99071 | 33701 ft | 470 kts | 292° |
| 2026-05-05 17:31 | 50.87262 | 6.94469 | 34050 ft | 473 kts | 293° |
| 2026-05-05 17:31 | 50.88780 | 6.89764 | 34390 ft | 475 kts | 293° |
| 2026-05-05 17:31 | 50.90300 | 6.85040 | 34840 ft | 474 kts | 293° |
| 2026-05-05 17:32 | 50.91792 | 6.80396 | 35312 ft | 472 kts | 293° |
| 2026-05-05 17:32 | 50.93298 | 6.75699 | 35794 ft | 471 kts | 293° |
| 2026-05-05 17:32 | 50.94777 | 6.71069 | 36223 ft | 471 kts | 293° |
| 2026-05-05 17:32 | 50.96235 | 6.66496 | 36622 ft | 471 kts | 293° |
| 2026-05-05 17:33 | 50.97752 | 6.61727 | 36819 ft | 470 kts | 293° |
| 2026-05-05 17:33 | 50.99204 | 6.57170 | 36831 ft | 455 kts | 293° |
| 2026-05-05 17:33 | 51.00611 | 6.52751 | 36832 ft | 442 kts | 293° |
| 2026-05-05 17:34 | 51.03373 | 6.44019 | 36847 ft | 439 kts | 292° |
| 2026-05-05 17:34 | 51.06106 | 6.35326 | 36854 ft | 440 kts | 292° |
| 2026-05-05 17:35 | 51.08834 | 6.26626 | 36853 ft | 440 kts | 292° |
| 2026-05-05 17:35 | 51.11563 | 6.17905 | 36859 ft | 440 kts | 292° |
| 2026-05-05 17:36 | 51.14061 | 6.09050 | 36856 ft | 436 kts | 283° |
| 2026-05-05 17:36 | 51.15720 | 5.99799 | 36859 ft | 434 kts | 281° |
| 2026-05-05 17:37 | 51.17235 | 5.90420 | 36856 ft | 434 kts | 281° |
| 2026-05-05 17:37 | 51.18972 | 5.81174 | 36864 ft | 437 kts | 288° |
| 2026-05-05 17:38 | 51.20892 | 5.73573 | 36855 ft | 438 kts | 289° |
| 2026-05-05 17:38 | 51.23262 | 5.64605 | 36868 ft | 439 kts | 289° |
| 2026-05-05 17:39 | 51.25642 | 5.55625 | 36874 ft | 439 kts | 289° |
| 2026-05-05 17:39 | 51.28003 | 5.46636 | 36880 ft | 439 kts | 289° |
| 2026-05-05 17:40 | 51.30350 | 5.37633 | 36881 ft | 439 kts | 289° |
| 2026-05-05 17:40 | 51.32686 | 5.28627 | 36883 ft | 438 kts | 289° |
| 2026-05-05 17:41 | 51.35014 | 5.19618 | 36883 ft | 439 kts | 289° |
| 2026-05-05 17:41 | 51.37339 | 5.10586 | 36879 ft | 438 kts | 289° |
| 2026-05-05 17:42 | 51.39653 | 5.01560 | 36878 ft | 438 kts | 289° |
| 2026-05-05 17:42 | 51.41976 | 4.92464 | 36886 ft | 438 kts | 289° |
| 2026-05-05 17:43 | 51.44278 | 4.83411 | 36883 ft | 438 kts | 289° |
| 2026-05-05 17:43 | 51.46574 | 4.74344 | 36880 ft | 439 kts | 289° |
| 2026-05-05 17:44 | 51.48871 | 4.65239 | 36879 ft | 440 kts | 289° |
| 2026-05-05 17:44 | 51.51163 | 4.56121 | 36862 ft | 440 kts | 289° |
| 2026-05-05 17:45 | 51.53447 | 4.46998 | 36857 ft | 440 kts | 289° |
| 2026-05-05 17:45 | 51.55706 | 4.37931 | 36859 ft | 440 kts | 289° |
| 2026-05-05 17:46 | 51.57974 | 4.28794 | 36863 ft | 440 kts | 289° |
| 2026-05-05 17:46 | 51.60238 | 4.19637 | 36864 ft | 440 kts | 289° |
| 2026-05-05 17:47 | 51.62491 | 4.10484 | 36868 ft | 440 kts | 289° |
| 2026-05-05 17:47 | 51.64751 | 4.01263 | 36878 ft | 440 kts | 289° |
| 2026-05-05 17:48 | 51.66988 | 3.92100 | 36887 ft | 440 kts | 288° |
| 2026-05-05 17:48 | 51.69220 | 3.82922 | 36891 ft | 439 kts | 288° |
| 2026-05-05 17:49 | 51.71441 | 3.73743 | 36893 ft | 439 kts | 288° |
| 2026-05-05 17:49 | 51.73658 | 3.64542 | 36894 ft | 439 kts | 288° |
| 2026-05-05 17:50 | 51.75867 | 3.55341 | 36898 ft | 439 kts | 288° |
| 2026-05-05 17:50 | 51.78081 | 3.46073 | 36905 ft | 439 kts | 288° |
| 2026-05-05 17:51 | 51.80275 | 3.36872 | 36911 ft | 439 kts | 288° |
| 2026-05-05 17:51 | 51.82457 | 3.27664 | 36918 ft | 439 kts | 288° |
| 2026-05-05 17:52 | 51.84315 | 3.18296 | 36921 ft | 434 kts | 276° |
| 2026-05-05 17:52 | 51.84415 | 3.08658 | 36927 ft | 428 kts | 263° |
| 2026-05-05 17:53 | 51.83840 | 2.99119 | 36927 ft | 428 kts | 261° |
| 2026-05-05 17:53 | 51.83155 | 2.89493 | 36928 ft | 428 kts | 261° |
| 2026-05-05 17:54 | 51.82486 | 2.79916 | 36926 ft | 428 kts | 261° |
| 2026-05-05 17:54 | 51.81833 | 2.70342 | 36927 ft | 428 kts | 261° |
| 2026-05-05 17:55 | 51.81184 | 2.60743 | 36663 ft | 434 kts | 261° |
| 2026-05-05 17:55 | 51.80848 | 2.55870 | 36413 ft | 437 kts | 261° |
| 2026-05-05 17:55 | 51.80506 | 2.50983 | 36156 ft | 438 kts | 261° |
| 2026-05-05 17:55 | 51.80163 | 2.46099 | 35797 ft | 435 kts | 261° |
| 2026-05-05 17:56 | 51.79824 | 2.41305 | 35229 ft | 436 kts | 261° |
| 2026-05-05 17:56 | 51.79474 | 2.36374 | 34569 ft | 438 kts | 261° |
| 2026-05-05 17:56 | 51.79123 | 2.31466 | 33856 ft | 441 kts | 260° |
| 2026-05-05 17:56 | 51.78767 | 2.26525 | 33040 ft | 444 kts | 260° |
| 2026-05-05 17:57 | 51.78408 | 2.21572 | 32279 ft | 445 kts | 261° |
| 2026-05-05 17:57 | 51.78093 | 2.16656 | 31604 ft | 446 kts | 262° |
| 2026-05-05 17:57 | 51.77815 | 2.11694 | 31066 ft | 442 kts | 262° |
| 2026-05-05 17:57 | 51.77536 | 2.06763 | 30490 ft | 440 kts | 262° |
| 2026-05-05 17:58 | 51.77251 | 2.01857 | 29904 ft | 438 kts | 262° |
| 2026-05-05 17:58 | 51.76963 | 1.96975 | 29276 ft | 435 kts | 262° |
| 2026-05-05 17:58 | 51.76672 | 1.92127 | 28697 ft | 431 kts | 262° |
| 2026-05-05 17:58 | 51.76383 | 1.87335 | 28120 ft | 427 kts | 262° |
| 2026-05-05 17:59 | 51.76092 | 1.82579 | 27548 ft | 424 kts | 262° |
| 2026-05-05 17:59 | 51.75800 | 1.77840 | 26979 ft | 421 kts | 262° |
| 2026-05-05 17:59 | 51.75513 | 1.73194 | 26401 ft | 419 kts | 262° |
| 2026-05-05 17:59 | 51.75222 | 1.68528 | 25827 ft | 417 kts | 263° |
| 2026-05-05 18:00 | 51.74926 | 1.63829 | 25239 ft | 415 kts | 263° |
| 2026-05-05 18:00 | 51.74623 | 1.59033 | 24630 ft | 413 kts | 263° |
| 2026-05-05 18:00 | 51.74342 | 1.54600 | 24042 ft | 412 kts | 263° |
| 2026-05-05 18:00 | 51.74047 | 1.50010 | 23414 ft | 411 kts | 264° |
| 2026-05-05 18:01 | 51.73751 | 1.45422 | 22732 ft | 409 kts | 264° |
| 2026-05-05 18:01 | 51.73458 | 1.40876 | 22116 ft | 406 kts | 264° |
| 2026-05-05 18:01 | 51.73165 | 1.36369 | 21502 ft | 403 kts | 264° |
| 2026-05-05 18:01 | 51.72872 | 1.31899 | 20913 ft | 400 kts | 264° |
| 2026-05-05 18:02 | 51.72578 | 1.27447 | 20313 ft | 397 kts | 264° |
| 2026-05-05 18:02 | 51.72281 | 1.22975 | 19710 ft | 394 kts | 264° |
| 2026-05-05 18:02 | 51.71992 | 1.18644 | 19129 ft | 392 kts | 264° |
| 2026-05-05 18:02 | 51.71700 | 1.14292 | 18543 ft | 390 kts | 264° |
| 2026-05-05 18:03 | 51.71413 | 1.10026 | 17921 ft | 372 kts | 264° |
| 2026-05-05 18:03 | 51.71123 | 1.05750 | 17332 ft | 367 kts | 264° |
| 2026-05-05 18:03 | 51.70852 | 1.01777 | 16800 ft | 364 kts | 264° |
| 2026-05-05 18:03 | 51.70576 | 0.97743 | 16251 ft | 360 kts | 264° |
| 2026-05-05 18:04 | 51.70299 | 0.93704 | 15745 ft | 362 kts | 264° |
| 2026-05-05 18:04 | 51.70024 | 0.89697 | 15323 ft | 356 kts | 264° |
| 2026-05-05 18:04 | 51.69748 | 0.85745 | 14876 ft | 352 kts | 264° |
| 2026-05-05 18:04 | 51.69473 | 0.81836 | 14440 ft | 349 kts | 264° |
| 2026-05-05 18:05 | 51.69200 | 0.77967 | 14021 ft | 346 kts | 264° |
| 2026-05-05 18:05 | 51.68932 | 0.74171 | 13812 ft | 335 kts | 264° |
| 2026-05-05 18:05 | 51.68672 | 0.70507 | 13596 ft | 323 kts | 264° |
| 2026-05-05 18:05 | 51.68420 | 0.66968 | 13346 ft | 314 kts | 264° |
| 2026-05-05 18:06 | 51.68173 | 0.63488 | 12956 ft | 310 kts | 264° |
| 2026-05-05 18:06 | 51.68089 | 0.62323 | 12806 ft | 309 kts | 264° |
| 2026-05-05 18:06 | 51.67756 | 0.57731 | 12245 ft | 306 kts | 264° |
| 2026-05-05 18:06 | 51.67510 | 0.54341 | 11829 ft | 304 kts | 264° |
| 2026-05-05 18:07 | 51.67268 | 0.51018 | 11617 ft | 294 kts | 264° |
| 2026-05-05 18:07 | 51.67033 | 0.47795 | 11452 ft | 284 kts | 264° |
| 2026-05-05 18:07 | 51.66808 | 0.44681 | 11293 ft | 275 kts | 264° |
| 2026-05-05 18:07 | 51.66585 | 0.41665 | 11093 ft | 268 kts | 264° |
| 2026-05-05 18:08 | 51.66366 | 0.38707 | 10788 ft | 265 kts | 264° |
| 2026-05-05 18:08 | 51.66146 | 0.35761 | 10479 ft | 263 kts | 264° |
| 2026-05-05 18:08 | 51.65929 | 0.32837 | 10165 ft | 262 kts | 264° |
| 2026-05-05 18:08 | 51.65712 | 0.29930 | 9850 ft | 260 kts | 264° |
| 2026-05-05 18:09 | 51.65496 | 0.27052 | 9418 ft | 259 kts | 265° |
| 2026-05-05 18:09 | 51.65281 | 0.24173 | 9084 ft | 257 kts | 265° |
| 2026-05-05 18:09 | 51.65067 | 0.21329 | 8736 ft | 256 kts | 265° |
| 2026-05-05 18:09 | 51.64853 | 0.18495 | 8415 ft | 254 kts | 265° |
| 2026-05-05 18:10 | 51.64623 | 0.15683 | 8101 ft | 253 kts | 262° |
| 2026-05-05 18:10 | 51.64213 | 0.12941 | 7710 ft | 250 kts | 256° |
| 2026-05-05 18:10 | 51.63713 | 0.10228 | 7200 ft | 249 kts | 255° |
| 2026-05-05 18:10 | 51.63213 | 0.07561 | 6719 ft | 247 kts | 256° |
| 2026-05-05 18:11 | 51.62726 | 0.04953 | 6570 ft | 241 kts | 256° |
| 2026-05-05 18:11 | 51.62244 | 0.02357 | 6488 ft | 242 kts | 256° |
| 2026-05-05 18:11 | 51.61765 | -0.00225 | 6388 ft | 241 kts | 256° |
| 2026-05-05 18:11 | 51.61286 | -0.02810 | 6299 ft | 241 kts | 256° |
| 2026-05-05 18:12 | 51.60808 | -0.05387 | 6214 ft | 240 kts | 256° |
| 2026-05-05 18:12 | 51.60323 | -0.07998 | 6106 ft | 240 kts | 256° |
| 2026-05-05 18:12 | 51.59844 | -0.10577 | 6036 ft | 241 kts | 256° |
| 2026-05-05 18:12 | 51.59370 | -0.13123 | 5987 ft | 239 kts | 256° |
| 2026-05-05 18:13 | 51.58891 | -0.15685 | 6042 ft | 241 kts | 256° |
| 2026-05-05 18:13 | 51.58410 | -0.18263 | 6055 ft | 240 kts | 256° |
| 2026-05-05 18:13 | 51.57930 | -0.20835 | 6062 ft | 240 kts | 256° |
| 2026-05-05 18:13 | 51.57491 | -0.23424 | 5989 ft | 240 kts | 262° |
| 2026-05-05 18:14 | 51.57339 | -0.26071 | 5995 ft | 238 kts | 270° |
| 2026-05-05 18:14 | 51.57286 | -0.28766 | 5993 ft | 238 kts | 270° |
| 2026-05-05 18:14 | 51.57245 | -0.31425 | 5993 ft | 238 kts | 271° |
| 2026-05-05 18:14 | 51.57206 | -0.34092 | 5992 ft | 239 kts | 271° |
| 2026-05-05 18:15 | 51.57168 | -0.36758 | 5991 ft | 239 kts | 271° |
| 2026-05-05 18:15 | 51.57129 | -0.39430 | 5994 ft | 239 kts | 271° |
| 2026-05-05 18:15 | 51.57090 | -0.42099 | 5992 ft | 239 kts | 271° |
| 2026-05-05 18:15 | 51.57051 | -0.44769 | 5990 ft | 239 kts | 271° |
| 2026-05-05 18:16 | 51.57014 | -0.47447 | 5991 ft | 239 kts | 271° |
| 2026-05-05 18:16 | 51.56976 | -0.50135 | 5997 ft | 240 kts | 271° |
| 2026-05-05 18:16 | 51.56938 | -0.52846 | 5998 ft | 240 kts | 271° |
| 2026-05-05 18:16 | 51.56899 | -0.55530 | 5996 ft | 240 kts | 271° |
| 2026-05-05 18:17 | 51.56863 | -0.58206 | 5990 ft | 240 kts | 271° |
| 2026-05-05 18:17 | 51.56828 | -0.60891 | 5992 ft | 240 kts | 271° |
| 2026-05-05 18:17 | 51.56794 | -0.63569 | 5995 ft | 240 kts | 271° |
| 2026-05-05 18:17 | 51.56759 | -0.66250 | 5991 ft | 240 kts | 271° |
| 2026-05-05 18:18 | 51.56724 | -0.68928 | 5988 ft | 239 kts | 270° |
| 2026-05-05 18:18 | 51.56689 | -0.71623 | 5688 ft | 238 kts | 271° |
| 2026-05-05 18:18 | 51.56655 | -0.74288 | 5327 ft | 239 kts | 271° |
| 2026-05-05 18:18 | 51.56558 | -0.76950 | 4994 ft | 240 kts | 262° |
| 2026-05-05 18:19 | 51.55851 | -0.79382 | 4654 ft | 243 kts | 230° |
| 2026-05-05 18:19 | 51.54516 | -0.80882 | 4422 ft | 230 kts | 199° |
| 2026-05-05 18:19 | 51.53004 | -0.81302 | 4246 ft | 213 kts | 183° |
| 2026-05-05 18:19 | 51.51568 | -0.81358 | 3962 ft | 201 kts | 176° |
| 2026-05-05 18:20 | 51.50288 | -0.80578 | 3469 ft | 197 kts | 139° |
| 2026-05-05 18:20 | 51.49392 | -0.78961 | 3082 ft | 191 kts | 123° |
| 2026-05-05 18:20 | 51.48802 | -0.77103 | 2733 ft | 186 kts | 104° |
| 2026-05-05 18:20 | 51.48569 | -0.75077 | 2277 ft | 183 kts | 92° |
| 2026-05-05 18:21 | 51.48339 | -0.73064 | 2254 ft | 181 kts | 100° |
| 2026-05-05 18:21 | 51.48045 | -0.71190 | 2197 ft | 173 kts | 102° |
| 2026-05-05 18:21 | 51.47752 | -0.69437 | 2138 ft | 156 kts | 102° |
| 2026-05-05 18:21 | 51.47513 | -0.67611 | 2122 ft | 163 kts | 96° |
| 2026-05-05 18:22 | 51.47488 | -0.65929 | 1993 ft | 141 kts | 78° |
| 2026-05-05 18:22 | 51.47611 | -0.64433 | 1890 ft | 134 kts | 78° |
| 2026-05-05 18:22 | 51.47736 | -0.62796 | 1780 ft | 148 kts | 83° |
| 2026-05-05 18:22 | 51.47826 | -0.61131 | 1356 ft | 153 kts | 82° |
| 2026-05-05 18:23 | 51.47794 | -0.59405 | 1190 ft | 159 kts | 94° |
| 2026-05-05 18:23 | 51.47639 | -0.57627 | 1147 ft | 162 kts | 93° |
| 2026-05-05 18:23 | 51.47655 | -0.55852 | 1101 ft | 159 kts | 84° |
| 2026-05-05 18:23 | 51.47718 | -0.54121 | 852 ft | 147 kts | 86° |
| 2026-05-05 18:24 | 51.47728 | -0.52535 | 667 ft | 137 kts | 86° |
| 2026-05-05 18:24 | 51.47732 | -0.51024 | 420 ft | 133 kts | 87° |
| 2026-05-05 18:24 | 51.47729 | -0.49569 | 265 ft | 130 kts | 86° |
| 2026-05-05 18:24 | 51.47745 | -0.48119 | 105 ft | 129 kts | 85° |
| 2026-05-05 18:25 | 51.47757 | -0.46835 | 100 ft | 88 kts | 90° |
| 2026-05-05 18:25 | 51.47755 | -0.46396 | 100 ft | 31 kts | 89° |
| 2026-05-05 18:25 | 51.47753 | -0.46243 | 96 ft | 12 kts | 102° |
| 2026-05-05 18:25 | 51.47697 | -0.46144 | 95 ft | 13 kts | 142° |
| 2026-05-05 18:26 | 51.47652 | -0.46089 | 94 ft | 9 kts | 144° |
| 2026-05-05 18:26 | 51.47601 | -0.46061 | 93 ft | 5 kts | 184° |
| 2026-05-05 18:26 | 51.47555 | -0.46075 | 94 ft | 8 kts | 189° |
| 2026-05-05 18:26 | 51.47533 | -0.46054 | 94 ft | 3 kts | 129° |
| 2026-05-05 18:27 | 51.47521 | -0.45996 | 94 ft | 8 kts | 99° |
| 2026-05-05 18:27 | 51.47518 | -0.45889 | 91 ft | 12 kts | 91° |
| 2026-05-05 18:27 | 51.47512 | -0.45737 | 93 ft | 15 kts | 96° |
| 2026-05-05 18:27 | 51.47506 | -0.45557 | 94 ft | 17 kts | 90° |
| 2026-05-05 18:28 | 51.47506 | -0.45181 | 94 ft | 14 kts | 90° |
| 2026-05-05 18:28 | 51.47506 | -0.45008 | 94 ft | 17 kts | 89° |
| 2026-05-05 18:28 | 51.47507 | -0.44861 | 94 ft | 2 kts | 90° |
| 2026-05-05 18:29 | 51.47507 | -0.44848 | 94 ft | 5 kts | 89° |
| 2026-05-05 18:30 | 51.47510 | -0.44750 | 95 ft | 13 kts | 87° |
| 2026-05-05 18:30 | 51.47505 | -0.44591 | 94 ft | 15 kts | 94° |
| 2026-05-05 18:30 | 51.47504 | -0.44410 | 94 ft | 18 kts | 89° |
| 2026-05-05 18:30 | 51.47506 | -0.44195 | 94 ft | 21 kts | 89° |
| 2026-05-05 18:31 | 51.47486 | -0.44077 | 94 ft | 5 kts | 146° |
| 2026-05-05 18:31 | 51.47443 | -0.44062 | 95 ft | 9 kts | 173° |
| 2026-05-05 18:31 | 51.47369 | -0.44062 | 95 ft | 12 kts | 181° |
| 2026-05-05 18:31 | 51.47270 | -0.44063 | 93 ft | 16 kts | 180° |
| 2026-05-05 18:32 | 51.47145 | -0.44061 | 95 ft | 20 kts | 178° |
| 2026-05-05 18:32 | 51.46998 | -0.44060 | 95 ft | 22 kts | 179° |
| 2026-05-05 18:32 | 51.46836 | -0.44055 | 95 ft | 16 kts | 179° |
| 2026-05-05 18:32 | 51.46760 | -0.44106 | 92 ft | 9 kts | 243° |
| 2026-05-05 18:33 | 51.46754 | -0.44206 | 94 ft | 11 kts | 270° |
| 2026-05-05 18:33 | 51.46754 | -0.44350 | 94 ft | 15 kts | 270° |
| 2026-05-05 18:33 | 51.46754 | -0.44469 | 94 ft | 17 kts | 270° |
| 2026-05-05 18:33 | 51.46805 | -0.44553 | 94 ft | 6 kts | 356° |
| 2026-05-05 18:34 | 51.46865 | -0.44556 | 93 ft | 11 kts | 359° |
| 2026-05-05 18:34 | 51.46914 | -0.44567 | 95 ft | 8 kts | 335° |
| 2026-05-05 18:34 | 51.46935 | -0.44616 | 94 ft | 5 kts | 285° |
| 2026-05-05 18:34 | 51.46937 | -0.44661 | 95 ft | 4 kts | 273° |
| 2026-05-05 18:35 | 51.46938 | -0.44692 | 93 ft | 0 kts | 272° |